Mac Dill Air Force Base
KMCF : now visible

Airfield :











YOU CAN JOIN US ON...

 
LOGIN :

Register | Disclaimer

   EN    FR    IT 

 









Legend :    VFR   Marginal VFR   IFR   Intensive IFR   Very Intensive IFR
Visi :
Ceiling :
>= 8 km
>= 3000ft
5 to 8 km
1000 to 3000 ft
1500m to 5 km
500 to 1000 ft
800 to 1500m
200 to 500 ft
< 800m
< 200 ft
Symbols :   Thunderstorms  Fog  Heavy snow  Heavy precipitations  Wind > 20 kt







- Airport Elevation : 14 ft


KMCF - Mac Dill Air Force Base

CURRENT METAR :
  • 201622Z AUTO 11013KT 10SM FEW033 BKN060 27/20 A3009 RMK AO2 RAB11E21DZB21E22 SLP193 FZRANO $

EXPIRED METARs :
  • 201611Z AUTO 11018G23KT 10SM -RA M 28/20 A3010 RMK AO2 RAB11 SLP196 FZRANO $
  • 201556Z AUTO 09017G21KT 10SM M 28/21 A3010 RMK AO2 SLP196 T02790207 FZRANO $
  • 201456Z AUTO 11016KT 10SM SCT060 28/20 A3009 RMK AO2 SLP193 T02810204 51010 FZRANO $
  • 201426Z AUTO 11015KT 10SM SCT020 SCT027 BKN075 27/20 A3009 RMK AO2 SLP193 FZRANO $
  • 201356Z AUTO 10015G21KT 10SM BKN019 BKN100 26/21 A3009 RMK AO2 CIG 019V100 BKN019 V FEW SLP193 T02590211 FZRANO $

TAF AMD TAF KMCF
Valid from the 20 at 13:00 until the 21 at 15:00 UTC


201355Z 2013/2115 09012G20KT 9999 SCT026 QNH3001INS
BECMG 2017/2018 11015G25KT 9000 -SHRA VCTS FEW020 BKN040CB QNH3002INS
TEMPO 2019/2022 VRB20G30KT 6000 -TSRA SCT010 BKN030CB
BECMG 2104/2105 07012KT 9999 NSW FEW027 QNH3008INS TX30/2017Z TN23/2108Z
No reported NOTAMs for that airfield.



MET'MAP, your aeronautical weather chart ! - Copyright ORBIFLY December 2007 - Disclaimer

ORBIFLY MET'MAP TEAM :

Programming & Development : Alexandra Zaïnal
Concept & Development : Baudouin d'Aumeries
Co-Development & Prog : Marc-Olivier Méhu
Technical & hardware support : Manuel Goepfert

Contact : metmap@orbifly.com




SOURCES & CREDITS :

   NOAA       Earth
Advisory